OIHH  Hamadan Airport

Add Bookmark

Hamadan, Iran

Status IATA
Operational HDM
Latitude Longitude
34° 52' 9" N 48° 33' 9" E
34.869202 48.552502
Local (DST + 5) UTC (GMT + 4)
Aug 30, 2014 06:40 Aug 30, 2014 02:10
Sunrise-Sunset Local UTC
Begin Civil Twilight 06:20 01:50
Sunrise 06:45 02:15
Sunset 07:46 15:16
End Civil Twilight 08:12 15:42

Current Weather

METAR Observed VFR
OIHH 300100Z 00000KT CAVOK 18/01 Q1018 Sat, Aug 30, 2014 @ 01:00 UTC
(1 Hour, 10 Minutes ago)
Visual Flight Rules
Wind Visibility Clouds Conditions
Calm 10 km or more
  • Clear skies
  • No significant weather
Temperatures Readings Precipitation
Current Temp 18°C (64°F)
Dewpoint 1°C (34°F)
Humidity 32%
Altimeter 30.06"Hg
Sea Level Pressure 1018mb
Field Elevation 5764.44'
None Recorded

Additional weather within a 92.6km radius of OIHH

Map ICAO Location
OIHM 69.5km S (160°)

24 Hour Weather History

Loading
-

24 Hour Weather Graphs

Loading
-

CheckWX.com is intended as a tool to help pilots better visualize weather data. It is not intended as a substitute for an official weather briefing obtained from a Flight Service Station. CheckWX.com does not meet the FAA requirements for an official pre-flight weather briefing. Therefore, it's important that pilots still call and obtain an official FSS pre-flight weather briefing.